Time;durP1;ratioP1;P1;durP2;ratioP2;P2;SDS_P1;SDS_P2;PMS_P1;PMS_P2;Temp;Humidity;BMP_temperature;BMP_pressure;BME280_temperature;BME280_humidity;BME280_pressure;Samples;Min_cycle;Max_cycle;Signal;HPM_P1;HPM_P2
2023/06/15 00:01:17;;;;;;;6.32;2.70;;;13.10;69.30;;;;;;5001988;28;20064;-67
2023/06/15 00:03:43;;;;;;;5.82;2.60;;;13.10;69.70;;;;;;5004763;28;20106;-67
2023/06/15 00:06:09;;;;;;;4.63;2.47;;;13.10;69.50;;;;;;5009772;28;20056;-67
2023/06/15 00:08:34;;;;;;;5.32;2.75;;;13.10;69.80;;;;;;4996123;28;20109;-68
2023/06/15 00:11:00;;;;;;;7.85;2.60;;;13.10;70.10;;;;;;5016039;28;20441;-67
2023/06/15 00:13:26;;;;;;;4.53;2.70;;;13.10;69.60;;;;;;5007756;28;20064;-68
2023/06/15 00:15:52;;;;;;;4.93;2.53;;;13.00;70.30;;;;;;5011693;28;20124;-66
2023/06/15 00:18:18;;;;;;;4.72;2.30;;;13.00;70.00;;;;;;5004615;28;20022;-67
2023/06/15 00:20:44;;;;;;;4.50;2.50;;;13.00;70.30;;;;;;5004619;28;20021;-67
2023/06/15 00:23:09;;;;;;;5.95;2.60;;;13.00;70.10;;;;;;5003689;28;20140;-67
2023/06/15 00:25:35;;;;;;;4.78;2.60;;;12.90;70.30;;;;;;5004179;28;20037;-67
2023/06/15 00:28:01;;;;;;;5.88;2.78;;;12.80;70.40;;;;;;5005609;28;20330;-67
2023/06/15 00:30:26;;;;;;;7.13;3.00;;;12.80;70.50;;;;;;5006533;28;20090;-67
2023/06/15 00:32:52;;;;;;;3.83;2.22;;;12.80;70.60;;;;;;5005710;28;20133;-68
2023/06/15 00:35:17;;;;;;;6.15;2.83;;;12.80;70.80;;;;;;5003388;28;20049;-67
2023/06/15 00:37:43;;;;;;;5.97;2.75;;;12.70;71.30;;;;;;4999361;28;20690;-67
2023/06/15 00:40:09;;;;;;;6.05;2.63;;;12.60;71.10;;;;;;5002196;28;20499;-71
2023/06/15 00:42:35;;;;;;;6.38;2.85;;;12.60;72.30;;;;;;5003707;28;20073;-72
2023/06/15 00:45:02;;;;;;;7.60;2.78;;;12.60;72.60;;;;;;5000949;28;20079;-70
2023/06/15 00:47:28;;;;;;;6.70;2.67;;;12.60;71.90;;;;;;5005295;28;20113;-68
2023/06/15 00:49:53;;;;;;;8.05;2.65;;;12.60;72.50;;;;;;5003989;28;20026;-67
2023/06/15 00:52:20;;;;;;;6.95;2.67;;;12.60;72.10;;;;;;5001362;28;20040;-67
2023/06/15 00:54:46;;;;;;;6.07;2.80;;;12.50;72.10;;;;;;5002509;28;20125;-69
2023/06/15 00:57:12;;;;;;;4.68;2.65;;;12.50;72.60;;;;;;5007063;28;20095;-67
2023/06/15 00:59:38;;;;;;;6.55;2.65;;;12.50;73.00;;;;;;5002885;28;20044;-68
2023/06/15 01:02:04;;;;;;;5.28;2.97;;;12.50;72.40;;;;;;5002019;28;20074;-67
2023/06/15 01:04:30;;;;;;;7.22;2.80;;;12.50;72.70;;;;;;4997187;28;20102;-68
2023/06/15 01:07:01;;;;;;;4.90;2.50;;;12.50;73.30;;;;;;4997260;28;20061;-70
2023/06/15 01:09:30;;;;;;;9.50;3.20;;;12.30;73.00;;;;;;5007940;28;20436;-68
2023/06/15 01:11:59;;;;;;;4.75;2.70;;;12.30;73.80;;;;;;5004326;28;20094;-70
2023/06/15 01:14:28;;;;;;;5.25;2.92;;;12.30;73.50;;;;;;5010893;28;20689;-67
2023/06/15 01:16:59;;;;;;;5.90;3.20;;;12.20;73.10;;;;;;5006880;28;20113;-68
2023/06/15 01:20:07;;;;;;;4.47;2.45;;;12.20;72.90;;;;;;5007772;28;20391;-66
2023/06/15 01:22:49;;;;;;;4.45;2.65;;;12.10;73.50;;;;;;5004592;28;20049;-68
2023/06/15 01:25:29;;;;;;;5.25;2.80;;;12.10;73.90;;;;;;5022330;28;20155;-67
2023/06/15 01:28:04;;;;;;;5.03;2.92;;;12.10;74.20;;;;;;5006767;28;20076;-67
2023/06/15 01:30:35;;;;;;;5.10;2.80;;;12.10;73.90;;;;;;5002884;28;20033;-67
2023/06/15 01:33:01;;;;;;;6.25;3.00;;;12.10;73.80;;;;;;5003288;28;22425;-68
2023/06/15 01:35:26;;;;;;;5.65;2.67;;;12.10;74.10;;;;;;5008868;28;20129;-67
2023/06/15 01:37:51;;;;;;;5.15;2.80;;;12.10;74.50;;;;;;4999691;28;20030;-68
2023/06/15 01:40:17;;;;;;;5.45;3.00;;;12.10;74.20;;;;;;5007424;28;20444;-68
2023/06/15 01:42:44;;;;;;;6.32;2.92;;;12.00;75.00;;;;;;5008574;28;20026;-67
2023/06/15 01:45:11;;;;;;;5.45;3.03;;;12.00;74.70;;;;;;5001906;28;20469;-67
2023/06/15 01:47:39;;;;;;;6.97;2.88;;;12.00;75.00;;;;;;5008396;28;20141;-67
2023/06/15 01:50:06;;;;;;;5.90;2.83;;;11.90;75.50;;;;;;5005438;28;20038;-68
2023/06/15 01:52:32;;;;;;;5.82;2.80;;;11.80;75.70;;;;;;5012599;28;20187;-68
2023/06/15 01:54:58;;;;;;;5.38;3.15;;;11.80;76.10;;;;;;5007346;28;20050;-70
2023/06/15 01:57:24;;;;;;;5.78;3.10;;;11.80;75.70;;;;;;5006919;28;20119;-66
2023/06/15 01:59:51;;;;;;;8.55;3.38;;;11.80;76.10;;;;;;5001184;28;20026;-67
2023/06/15 02:02:16;;;;;;;6.60;3.03;;;11.80;76.20;;;;;;5000023;28;20045;-68
2023/06/15 02:04:42;;;;;;;8.43;3.42;;;11.80;76.30;;;;;;5006871;28;20026;-66
2023/06/15 02:07:07;;;;;;;5.78;2.97;;;11.80;77.00;;;;;;4998330;28;20358;-67
2023/06/15 02:09:33;;;;;;;6.90;2.83;;;11.70;76.80;;;;;;5002106;28;20018;-67
2023/06/15 02:11:58;;;;;;;11.15;3.10;;;11.70;76.70;;;;;;5007776;28;20038;-67
2023/06/15 02:14:24;;;;;;;6.50;3.53;;;11.60;77.00;;;;;;5011566;28;20045;-66
2023/06/15 02:16:49;;;;;;;9.25;2.90;;;11.70;77.10;;;;;;5003673;28;20046;-67
2023/06/15 02:19:21;;;;;;;4.30;2.78;;;11.60;77.40;;;;;;5010407;28;20026;-67
2023/06/15 02:21:47;;;;;;;;;;;11.60;77.80;;;;;;5009031;28;20160;-68
2023/06/15 02:24:12;;;;;;;7.03;3.03;;;11.60;77.60;;;;;;5002809;28;20372;-67
2023/06/15 02:26:40;;;;;;;5.80;2.92;;;11.60;77.80;;;;;;5005244;28;20081;-68
2023/06/15 02:29:05;;;;;;;5.72;3.20;;;11.50;78.60;;;;;;5005655;28;20037;-68
2023/06/15 02:31:31;;;;;;;7.70;3.60;;;11.50;78.70;;;;;;5009086;28;20029;-67
2023/06/15 02:33:56;;;;;;;4.82;2.97;;;11.50;78.60;;;;;;5006905;28;20037;-67
2023/06/15 02:36:22;;;;;;;9.32;3.50;;;11.50;79.10;;;;;;5002345;28;20343;-72
2023/06/15 02:38:48;;;;;;;8.82;3.60;;;11.50;79.70;;;;;;4999376;28;20047;-67
2023/06/15 02:41:14;;;;;;;6.57;2.92;;;11.50;79.70;;;;;;5005625;28;20048;-67
2023/06/15 02:43:39;;;;;;;4.55;3.25;;;11.50;79.70;;;;;;5003011;28;20383;-68
2023/06/15 02:46:05;;;;;;;6.82;3.13;;;11.50;80.00;;;;;;5013967;28;20109;-67
2023/06/15 02:48:30;;;;;;;7.35;3.30;;;11.40;80.30;;;;;;5004061;28;20450;-67
2023/06/15 02:50:56;;;;;;;5.78;3.47;;;11.50;80.60;;;;;;5004553;28;20192;-72
2023/06/15 02:53:22;;;;;;;5.78;3.38;;;11.50;80.70;;;;;;5009577;28;20064;-67
2023/06/15 02:55:48;;;;;;;9.82;3.58;;;11.50;81.10;;;;;;5008850;28;20438;-69
2023/06/15 02:58:13;;;;;;;10.98;4.13;;;11.50;81.30;;;;;;5003020;28;20085;-67
2023/06/15 03:00:40;;;;;;;8.35;3.47;;;11.40;81.10;;;;;;5002044;28;20036;-73
2023/06/15 03:03:07;;;;;;;5.57;3.25;;;11.50;81.40;;;;;;5004547;28;20435;-68
2023/06/15 03:05:33;;;;;;;7.28;3.30;;;11.40;81.40;;;;;;5004121;28;20032;-67
2023/06/15 03:07:58;;;;;;;12.32;3.85;;;11.40;81.40;;;;;;5000406;28;20042;-68
2023/06/15 03:10:24;;;;;;;8.38;3.92;;;11.40;81.90;;;;;;4996752;28;20040;-68
2023/06/15 03:12:49;;;;;;;6.28;3.30;;;11.40;81.90;;;;;;5011502;28;20030;-67
2023/06/15 03:15:16;;;;;;;5.95;3.38;;;11.40;82.50;;;;;;5006410;28;20041;-68
2023/06/15 03:17:42;;;;;;;9.65;3.80;;;11.40;82.10;;;;;;5005697;28;20026;-69
2023/06/15 03:20:10;;;;;;;6.75;2.90;;;11.50;82.30;;;;;;5007042;28;20030;-70
2023/06/15 03:22:36;;;;;;;9.13;3.05;;;11.40;82.30;;;;;;5006934;28;20040;-69
2023/06/15 03:25:03;;;;;;;12.40;3.55;;;11.40;82.30;;;;;;5007775;28;20042;-68
2023/06/15 03:27:29;;;;;;;6.55;3.45;;;11.40;82.00;;;;;;5007984;28;20394;-68
2023/06/15 03:29:56;;;;;;;9.65;3.25;;;11.50;82.40;;;;;;5009539;28;20132;-68
2023/06/15 03:32:22;;;;;;;6.40;3.40;;;11.50;82.70;;;;;;5004479;28;20068;-68
2023/06/15 03:34:47;;;;;;;8.43;3.50;;;11.50;82.60;;;;;;5009815;28;20061;-68
2023/06/15 03:37:14;;;;;;;5.50;3.38;;;11.50;82.60;;;;;;5001722;28;20057;-68
2023/06/15 03:39:39;;;;;;;6.10;3.30;;;11.50;82.70;;;;;;5005308;28;20026;-68
2023/06/15 03:42:05;;;;;;;10.07;3.38;;;11.50;82.90;;;;;;5007666;28;20022;-69
2023/06/15 03:44:31;;;;;;;12.30;4.10;;;11.60;82.90;;;;;;5006904;28;20801;-70
2023/06/15 03:46:56;;;;;;;14.07;4.45;;;11.60;83.00;;;;;;5000907;28;20673;-69
2023/06/15 03:49:22;;;;;;;15.60;4.25;;;11.60;82.90;;;;;;5006877;28;20391;-69
2023/06/15 03:51:47;;;;;;;11.45;3.80;;;11.70;82.80;;;;;;5010318;28;20045;-70
2023/06/15 03:54:13;;;;;;;9.95;3.90;;;11.70;82.80;;;;;;5006906;28;20068;-68
2023/06/15 03:56:39;;;;;;;8.68;3.90;;;11.80;82.90;;;;;;5006821;28;20076;-68
2023/06/15 03:59:04;;;;;;;6.65;3.45;;;11.80;82.40;;;;;;4999071;28;20037;-69
2023/06/15 04:01:30;;;;;;;7.50;3.78;;;11.80;82.40;;;;;;4996690;28;20052;-68
2023/06/15 04:03:55;;;;;;;8.20;3.50;;;11.80;82.60;;;;;;5008650;28;20407;-69
2023/06/15 04:06:21;;;;;;;9.18;3.35;;;11.90;82.60;;;;;;5002483;28;20045;-70
2023/06/15 04:08:48;;;;;;;7.82;3.30;;;11.90;82.40;;;;;;5002579;28;20028;-71
2023/06/15 04:11:14;;;;;;;8.27;3.72;;;12.00;82.20;;;;;;4998149;28;20045;-69
2023/06/15 04:13:40;;;;;;;7.53;3.47;;;12.00;82.20;;;;;;5006277;28;20060;-68
2023/06/15 04:16:06;;;;;;;7.72;3.13;;;12.10;82.10;;;;;;5012190;28;20121;-68
2023/06/15 04:18:31;;;;;;;5.97;3.20;;;12.10;82.10;;;;;;5006119;28;20053;-68
2023/06/15 04:20:57;;;;;;;7.13;2.92;;;12.20;81.70;;;;;;5011009;28;20363;-68
2023/06/15 04:23:22;;;;;;;8.88;3.42;;;12.30;81.70;;;;;;5002580;28;20145;-68
2023/06/15 04:25:48;;;;;;;7.32;2.90;;;12.30;81.30;;;;;;5006411;28;20068;-69
2023/06/15 04:28:13;;;;;;;8.63;3.15;;;12.40;81.40;;;;;;5012492;28;20029;-66
2023/06/15 04:30:40;;;;;;;7.78;3.35;;;12.50;81.20;;;;;;5006306;28;20060;-64
2023/06/15 04:33:12;;;;;;;8.73;2.95;;;12.50;81.30;;;;;;5000322;28;20137;-66
2023/06/15 04:35:40;;;;;;;8.13;3.15;;;12.60;81.30;;;;;;5004210;28;20033;-65
2023/06/15 04:38:05;;;;;;;9.18;2.78;;;12.60;80.60;;;;;;4997729;28;20170;-66
2023/06/15 04:40:31;;;;;;;7.72;2.50;;;12.70;80.90;;;;;;5010031;28;20129;-69
2023/06/15 04:43:02;;;;;;;5.35;3.05;;;12.80;80.50;;;;;;5011429;28;20030;-64
2023/06/15 04:45:28;;;;;;;;;;;12.80;79.40;;;;;;5001047;28;20033;-64
2023/06/15 04:47:54;;;;;;;9.48;2.47;;;12.90;78.90;;;;;;5004312;28;19936;-69
2023/06/15 04:50:21;;;;;;;9.43;3.28;;;13.00;79.20;;;;;;4992319;28;20125;-64
2023/06/15 04:52:47;;;;;;;8.50;3.33;;;13.00;79.50;;;;;;5002155;28;20093;-64
2023/06/15 04:55:12;;;;;;;5.88;2.90;;;13.10;79.60;;;;;;5001984;28;20220;-65
2023/06/15 04:57:38;;;;;;;10.43;2.88;;;13.20;79.50;;;;;;5010831;28;20069;-65
2023/06/15 05:00:09;;;;;;;5.40;3.20;;;13.30;78.80;;;;;;5003753;28;20112;-67
2023/06/15 05:02:35;;;;;;;10.27;2.97;;;13.40;78.30;;;;;;4997806;28;20049;-66
2023/06/15 05:05:00;;;;;;;9.63;3.17;;;13.50;78.30;;;;;;5006593;28;20038;-64
2023/06/15 05:07:26;;;;;;;8.88;2.67;;;13.60;77.60;;;;;;4995672;28;20038;-65
2023/06/15 05:09:52;;;;;;;7.10;2.28;;;13.70;77.20;;;;;;4998446;28;20085;-64
2023/06/15 05:12:17;;;;;;;7.47;2.90;;;13.80;76.50;;;;;;5002038;28;20047;-66
2023/06/15 05:14:43;;;;;;;5.38;2.50;;;13.90;76.70;;;;;;5002817;28;20034;-65
2023/06/15 05:17:08;;;;;;;7.63;3.22;;;14.00;76.60;;;;;;5000317;28;20117;-65
2023/06/15 05:19:34;;;;;;;8.25;3.13;;;14.10;75.30;;;;;;5003267;28;20037;-66
2023/06/15 05:22:01;;;;;;;9.98;2.67;;;14.20;74.70;;;;;;5001478;28;20113;-64
2023/06/15 05:24:27;;;;;;;15.48;3.28;;;14.40;74.70;;;;;;5005333;28;20176;-65
2023/06/15 05:26:52;;;;;;;8.30;2.55;;;14.50;73.80;;;;;;4999126;28;20038;-64
2023/06/15 05:29:18;;;;;;;7.43;2.50;;;14.70;72.40;;;;;;4996636;28;20213;-64
2023/06/15 05:31:44;;;;;;;8.77;2.58;;;14.80;73.00;;;;;;4992969;28;20136;-65
2023/06/15 05:34:10;;;;;;;6.63;2.72;;;14.90;72.00;;;;;;5007313;28;20106;-64
2023/06/15 05:36:35;;;;;;;6.00;2.58;;;15.00;71.70;;;;;;4997288;28;20531;-66
2023/06/15 05:39:01;;;;;;;6.22;2.65;;;15.20;71.10;;;;;;4995063;28;20029;-62
2023/06/15 05:41:26;;;;;;;3.40;2.22;;;15.30;71.50;;;;;;4999727;28;20037;-64
2023/06/15 05:43:52;;;;;;;7.03;2.75;;;15.40;70.30;;;;;;5001183;28;20057;-63
2023/06/15 05:46:17;;;;;;;8.07;3.03;;;15.50;69.30;;;;;;4997350;28;20089;-63
2023/06/15 05:48:43;;;;;;;13.00;4.40;;;15.70;69.60;;;;;;4999722;28;20201;-65
2023/06/15 05:51:08;;;;;;;8.35;3.17;;;15.80;67.90;;;;;;5002127;28;20117;-67
2023/06/15 05:53:34;;;;;;;5.05;2.00;;;16.00;68.50;;;;;;5003793;28;20034;-65
2023/06/15 05:55:59;;;;;;;7.80;2.33;;;16.20;67.20;;;;;;4993262;28;20498;-65
2023/06/15 05:58:25;;;;;;;13.98;2.40;;;16.30;65.90;;;;;;5009694;28;20450;-66
2023/06/15 06:00:51;;;;;;;4.60;2.05;;;16.50;67.40;;;;;;5004503;28;20331;-66
2023/06/15 06:03:16;;;;;;;7.82;2.67;;;16.60;67.70;;;;;;5010093;28;20419;-66
2023/06/15 06:05:42;;;;;;;12.77;2.70;;;16.70;66.20;;;;;;5009314;28;20046;-66
2023/06/15 06:08:07;;;;;;;13.82;3.08;;;16.90;65.20;;;;;;5002975;28;20427;-65
2023/06/15 06:10:33;;;;;;;14.95;3.03;;;17.10;65.20;;;;;;5003825;28;20023;-66
2023/06/15 06:12:58;;;;;;;12.13;3.08;;;17.30;64.70;;;;;;5013113;28;20080;-66
2023/06/15 06:15:24;;;;;;;10.02;2.72;;;17.50;64.30;;;;;;5008307;28;20089;-65
2023/06/15 06:17:50;;;;;;;9.40;2.40;;;17.60;65.00;;;;;;5006144;28;20057;-65
2023/06/15 06:20:15;;;;;;;9.93;3.10;;;17.80;63.20;;;;;;5006135;28;20094;-71
2023/06/15 06:22:41;;;;;;;8.70;2.80;;;18.00;61.80;;;;;;4998286;28;20034;-66
2023/06/15 06:25:07;;;;;;;12.50;2.78;;;18.10;63.00;;;;;;5001692;28;20133;-66
2023/06/15 06:27:33;;;;;;;12.60;2.97;;;18.20;61.90;;;;;;5008575;28;20053;-67
2023/06/15 06:29:59;;;;;;;8.75;2.63;;;18.40;62.70;;;;;;5017513;28;20026;-67
2023/06/15 06:32:25;;;;;;;8.90;2.60;;;18.50;61.90;;;;;;5006118;28;20092;-67
2023/06/15 06:34:50;;;;;;;15.98;3.25;;;18.80;60.00;;;;;;5019558;28;20489;-67
2023/06/15 06:37:16;;;;;;;10.25;2.65;;;18.90;60.30;;;;;;5010951;28;20200;-68
2023/06/15 06:39:41;;;;;;;7.22;2.13;;;19.10;59.00;;;;;;5000570;28;20335;-68
2023/06/15 06:42:07;;;;;;;12.32;2.92;;;19.20;59.00;;;;;;5008684;28;20093;-67
2023/06/15 06:44:33;;;;;;;12.73;3.03;;;19.40;59.20;;;;;;5015586;28;20025;-68
2023/06/15 06:47:00;;;;;;;9.05;2.38;;;19.60;58.20;;;;;;5012783;28;20053;-67
2023/06/15 06:49:25;;;;;;;11.55;3.15;;;19.70;56.40;;;;;;5015230;28;20021;-68
2023/06/15 06:51:51;;;;;;;20.45;3.17;;;20.00;56.00;;;;;;5013139;28;20358;-70
2023/06/15 06:54:16;;;;;;;10.63;2.28;;;20.00;56.20;;;;;;5017156;28;20344;-69
2023/06/15 06:56:42;;;;;;;6.97;2.47;;;20.20;54.60;;;;;;5010246;28;20025;-68
2023/06/15 06:59:07;;;;;;;10.98;2.83;;;20.40;57.00;;;;;;5008996;28;20448;-68
2023/06/15 07:01:32;;;;;;;7.13;2.78;;;20.50;57.10;;;;;;5005858;28;20026;-69
2023/06/15 07:03:58;;;;;;;8.35;2.60;;;20.60;56.30;;;;;;5018576;28;20061;-68
2023/06/15 07:06:23;;;;;;;7.18;2.35;;;20.80;56.00;;;;;;5007000;28;20069;-70
2023/06/15 07:08:50;;;;;;;4.25;2.33;;;21.00;53.30;;;;;;4998723;28;20085;-68
2023/06/15 07:11:15;;;;;;;3.80;2.30;;;21.10;53.50;;;;;;5009447;28;20026;-70
2023/06/15 07:13:41;;;;;;;5.18;2.17;;;21.50;54.80;;;;;;5024011;28;20128;-68
2023/06/15 07:16:06;;;;;;;6.65;2.42;;;21.60;53.00;;;;;;5003283;28;20046;-68
2023/06/15 07:18:32;;;;;;;13.23;3.00;;;21.90;52.30;;;;;;5007441;28;20033;-68
2023/06/15 07:20:58;;;;;;;6.40;2.35;;;22.00;51.60;;;;;;5008165;28;20113;-69
2023/06/15 07:23:24;;;;;;;6.85;2.47;;;22.00;51.10;;;;;;4997852;28;20033;-69
2023/06/15 07:25:53;;;;;;;3.85;2.03;;;21.70;50.10;;;;;;5008301;28;20333;-68
2023/06/15 07:28:19;;;;;;;3.90;2.00;;;21.60;48.90;;;;;;5010071;28;20296;-68
2023/06/15 07:30:48;;;;;;;4.90;2.00;;;21.70;49.80;;;;;;5004964;28;20096;-68
2023/06/15 07:33:14;;;;;;;7.28;2.22;;;22.20;50.30;;;;;;5007081;28;20099;-72
2023/06/15 07:35:39;;;;;;;8.25;2.65;;;22.30;50.40;;;;;;5003459;28;20092;-68
2023/06/15 07:38:05;;;;;;;5.60;2.08;;;22.40;48.50;;;;;;5004704;28;20427;-68
2023/06/15 07:40:30;;;;;;;8.20;2.08;;;22.50;50.70;;;;;;5005589;28;20461;-68
2023/06/15 07:42:56;;;;;;;3.97;2.13;;;22.50;45.80;;;;;;5015202;28;20346;-68
2023/06/15 07:45:21;;;;;;;9.00;2.22;;;22.70;48.00;;;;;;5004529;28;20091;-68
2023/06/15 07:47:47;;;;;;;6.72;2.03;;;23.00;46.60;;;;;;5013676;28;20064;-68
2023/06/15 07:50:12;;;;;;;5.00;2.10;;;23.20;49.20;;;;;;5008483;28;20033;-68
2023/06/15 07:52:38;;;;;;;5.38;2.10;;;23.00;44.50;;;;;;5005473;28;20026;-69
2023/06/15 07:55:04;;;;;;;6.75;2.33;;;23.60;43.60;;;;;;5011248;28;20042;-68
2023/06/15 07:57:30;;;;;;;4.82;1.95;;;23.70;41.70;;;;;;5006141;28;20033;-69
2023/06/15 07:59:56;;;;;;;5.63;2.20;;;24.00;43.30;;;;;;5011551;28;20037;-69
2023/06/15 08:02:22;;;;;;;6.60;2.65;;;24.10;44.50;;;;;;5006135;28;20029;-66
2023/06/15 08:04:47;;;;;;;7.88;2.40;;;23.70;40.80;;;;;;5006928;28;20062;-66
2023/06/15 08:07:13;;;;;;;7.63;2.28;;;23.60;44.00;;;;;;5007891;28;20353;-66
2023/06/15 08:09:38;;;;;;;6.03;2.13;;;23.80;44.20;;;;;;5007296;28;20134;-66
2023/06/15 08:12:04;;;;;;;7.30;2.20;;;24.00;41.90;;;;;;5009367;28;20064;-67
2023/06/15 08:14:30;;;;;;;9.70;2.00;;;23.90;41.30;;;;;;5006988;28;20164;-69
2023/06/15 08:16:55;;;;;;;4.75;2.30;;;24.00;44.80;;;;;;5004405;28;20064;-68
2023/06/15 08:19:21;;;;;;;10.00;2.20;;;24.00;43.90;;;;;;5011645;28;20037;-68
2023/06/15 08:21:46;;;;;;;5.57;2.28;;;24.30;43.90;;;;;;5009862;28;20427;-67
2023/06/15 08:24:12;;;;;;;7.80;2.55;;;24.40;43.50;;;;;;5002607;28;20037;-67
2023/06/15 08:26:38;;;;;;;5.00;2.20;;;24.50;43.80;;;;;;5007685;28;20094;-66
2023/06/15 08:29:04;;;;;;;8.07;2.17;;;24.20;40.40;;;;;;5009122;28;20056;-67
2023/06/15 08:31:30;;;;;;;5.40;1.98;;;23.90;40.00;;;;;;5006613;28;20082;-67
2023/06/15 08:33:55;;;;;;;4.03;2.10;;;23.90;39.50;;;;;;5007458;28;20399;-67
2023/06/15 08:36:22;;;;;;;4.18;2.20;;;24.00;41.70;;;;;;5006420;28;20030;-67
2023/06/15 08:38:48;;;;;;;10.13;2.13;;;24.00;40.10;;;;;;5001826;28;20409;-67
2023/06/15 08:41:14;;;;;;;4.90;2.15;;;24.20;41.60;;;;;;5004577;28;20034;-66
2023/06/15 08:43:43;;;;;;;5.72;1.80;;;24.10;41.40;;;;;;5006794;28;20038;-67
2023/06/15 08:46:08;;;;;;;5.00;1.98;;;24.30;40.40;;;;;;5005676;28;20022;-67
2023/06/15 08:48:35;;;;;;;5.40;1.90;;;24.70;40.90;;;;;;5006895;28;20390;-67
2023/06/15 08:51:03;;;;;;;3.90;1.90;;;24.80;39.10;;;;;;5003822;28;20072;-68
2023/06/15 08:53:30;;;;;;;11.93;2.10;;;24.70;42.00;;;;;;5002675;28;20065;-67
2023/06/15 08:55:56;;;;;;;4.65;2.22;;;24.90;40.40;;;;;;5006973;28;20062;-68
2023/06/15 08:58:21;;;;;;;5.80;2.03;;;25.00;38.60;;;;;;5003949;28;20481;-67
2023/06/15 09:00:46;;;;;;;11.98;2.67;;;25.00;41.00;;;;;;5002545;28;20026;-67
2023/06/15 09:03:13;;;;;;;5.82;1.85;;;25.00;39.20;;;;;;5002610;28;20402;-72
2023/06/15 09:05:39;;;;;;;9.55;2.30;;;24.80;40.50;;;;;;5002032;28;20411;-66
2023/06/15 09:08:05;;;;;;;3.30;1.95;;;25.10;42.70;;;;;;4998969;28;20026;-66
2023/06/15 09:10:35;;;;;;;7.07;2.88;;;25.40;40.90;;;;;;5005406;28;20037;-67
2023/06/15 09:13:01;;;;;;;8.35;2.05;;;25.30;37.40;;;;;;5006393;28;20287;-71
2023/06/15 09:15:28;;;;;;;8.13;2.28;;;25.30;39.00;;;;;;5005771;28;20045;-67
2023/06/15 09:17:58;;;;;;;4.50;2.10;;;25.30;39.70;;;;;;5004563;28;20123;-69
2023/06/15 09:20:26;;;;;;;4.00;2.10;;;25.50;38.60;;;;;;5004613;28;20096;-67
2023/06/15 09:22:56;;;;;;;6.35;2.50;;;25.50;39.70;;;;;;5000796;28;20133;-67
2023/06/15 09:25:21;;;;;;;5.80;2.08;;;25.50;38.10;;;;;;5004855;28;20030;-67
2023/06/15 09:28:01;;;;;;;9.32;2.53;;;25.30;37.60;;;;;;5008952;28;20316;-67
2023/06/15 09:30:35;;;;;;;4.53;1.85;;;25.60;35.60;;;;;;5000193;28;20030;-67
2023/06/15 09:33:10;;;;;;;4.28;1.85;;;25.20;35.20;;;;;;5007024;28;20124;-67
2023/06/15 09:35:36;;;;;;;2.72;1.73;;;25.70;38.80;;;;;;5002404;28;20129;-69
2023/06/15 09:38:02;;;;;;;5.88;1.83;;;25.90;37.90;;;;;;5006583;28;20087;-68
2023/06/15 09:40:30;;;;;;;5.80;1.65;;;25.70;34.70;;;;;;5012458;28;20421;-67
2023/06/15 09:42:57;;;;;;;7.35;2.00;;;26.00;38.30;;;;;;5011643;28;20037;-67
2023/06/15 09:45:23;;;;;;;7.90;2.08;;;26.10;37.30;;;;;;5006742;28;20030;-69
2023/06/15 09:47:55;;;;;;;4.68;2.17;;;26.30;36.90;;;;;;5008665;28;20053;-67
2023/06/15 09:50:26;;;;;;;8.18;2.08;;;26.50;36.50;;;;;;5008774;28;20109;-68
2023/06/15 09:52:52;;;;;;;3.80;1.42;;;26.70;35.70;;;;;;5009753;28;20480;-69
2023/06/15 09:55:18;;;;;;;4.38;1.55;;;26.70;37.30;;;;;;5009015;28;20121;-67
2023/06/15 09:57:45;;;;;;;8.13;1.92;;;26.50;37.10;;;;;;5009123;28;20044;-68
2023/06/15 10:00:12;;;;;;;6.70;2.28;;;26.60;35.20;;;;;;5010250;28;20018;-67
2023/06/15 10:02:39;;;;;;;5.63;2.60;;;26.90;36.50;;;;;;5006488;28;20383;-69
2023/06/15 10:05:13;;;;;;;7.60;2.72;;;26.70;33.60;;;;;;5007591;28;20026;-67
2023/06/15 10:07:43;;;;;;;4.63;1.90;;;27.10;36.20;;;;;;5005819;28;20199;-67
2023/06/15 10:10:10;;;;;;;6.07;1.98;;;26.60;35.00;;;;;;5006380;28;20034;-67
2023/06/15 10:12:40;;;;;;;9.32;2.17;;;26.10;36.50;;;;;;5006777;28;20113;-68
2023/06/15 10:15:12;;;;;;;7.63;2.03;;;26.30;36.00;;;;;;5005947;28;20082;-69
2023/06/15 10:17:40;;;;;;;7.32;2.38;;;26.40;36.60;;;;;;5011743;28;20042;-67
2023/06/15 10:20:19;;;;;;;9.80;2.00;;;25.80;34.60;;;;;;5009368;28;20102;-68
2023/06/15 10:22:51;;;;;;;5.43;2.13;;;25.50;34.90;;;;;;5007776;28;20033;-66
2023/06/15 10:25:18;;;;;;;4.80;2.00;;;25.50;36.10;;;;;;5009070;28;20022;-67
2023/06/15 10:27:44;;;;;;;6.32;1.85;;;24.90;36.40;;;;;;5012698;28;20030;-67
2023/06/15 10:30:32;;;;;;;3.53;2.08;;;24.50;36.90;;;;;;5007853;28;20385;-69
2023/06/15 10:33:12;;;;;;;4.13;1.92;;;24.20;37.20;;;;;;5005330;28;20038;-67
2023/06/15 10:36:02;;;;;;;6.40;2.25;;;24.00;37.70;;;;;;5003119;28;20338;-67
2023/06/15 10:38:45;;;;;;;8.05;2.58;;;23.60;39.10;;;;;;5003584;28;20119;-67
2023/06/15 10:41:10;;;;;;;5.40;1.70;;;23.50;41.40;;;;;;5009703;28;20088;-67
2023/06/15 10:43:36;;;;;;;6.38;2.30;;;23.60;42.50;;;;;;5009181;28;20104;-68
2023/06/15 10:46:02;;;;;;;8.13;2.50;;;23.10;36.20;;;;;;5010630;28;20037;-67
2023/06/15 10:48:29;;;;;;;10.95;2.30;;;23.30;38.80;;;;;;5000616;28;20053;-69
2023/06/15 10:51:06;;;;;;;3.90;2.03;;;23.50;39.50;;;;;;5005346;28;20022;-69
2023/06/15 10:53:40;;;;;;;10.77;2.60;;;23.70;40.20;;;;;;5004586;28;20426;-67
2023/06/15 10:56:13;;;;;;;8.93;2.15;;;24.10;40.10;;;;;;5006120;28;20022;-71
2023/06/15 10:58:59;;;;;;;11.52;2.55;;;24.50;38.20;;;;;;5007222;28;20105;-67
2023/06/15 11:01:26;;;;;;;6.47;2.55;;;24.80;38.30;;;;;;5004783;28;20087;-68
2023/06/15 11:03:54;;;;;;;5.15;2.17;;;25.60;37.50;;;;;;5003155;28;20553;-68
2023/06/15 11:06:30;;;;;;;5.63;2.28;;;26.50;34.40;;;;;;5004679;28;20224;-70
2023/06/15 11:09:01;;;;;;;7.60;2.40;;;27.10;32.70;;;;;;5004485;28;20076;-70
2023/06/15 11:11:32;;;;;;;8.82;2.83;;;27.10;32.30;;;;;;5018425;28;20374;-68
2023/06/15 11:14:00;;;;;;;3.25;1.77;;;27.50;33.00;;;;;;5005754;28;20029;-68
2023/06/15 11:16:30;;;;;;;8.23;2.17;;;27.40;32.00;;;;;;5005418;28;20525;-70
2023/06/15 11:19:19;;;;;;;5.55;2.60;;;27.90;32.20;;;;;;5003128;28;20476;-69
2023/06/15 11:21:59;;;;;;;8.70;2.65;;;27.30;32.00;;;;;;4994685;28;20029;-67
2023/06/15 11:24:29;;;;;;;4.97;2.65;;;28.20;31.30;;;;;;5001011;28;20026;-68
2023/06/15 11:26:55;;;;;;;;;;;28.20;34.00;;;;;;5010235;28;20082;-67
2023/06/15 11:29:25;;;;;;;5.55;2.22;;;27.50;32.30;;;;;;4996614;28;20027;-67
2023/06/15 11:31:53;;;;;;;6.72;1.83;;;27.70;34.30;;;;;;4991087;28;20038;-70
2023/06/15 11:34:18;;;;;;;6.28;2.28;;;26.70;32.50;;;;;;5000905;28;20053;-68
2023/06/15 11:36:44;;;;;;;7.65;2.30;;;26.60;34.10;;;;;;5006584;28;20497;-70
2023/06/15 11:39:23;;;;;;;3.75;2.13;;;27.00;34.30;;;;;;4999228;28;20434;-68
2023/06/15 11:41:53;;;;;;;4.15;1.90;;;27.50;32.60;;;;;;5002204;28;20045;-68
2023/06/15 11:44:21;;;;;;;4.22;2.00;;;28.50;31.80;;;;;;5011384;28;20322;-70
2023/06/15 11:46:58;;;;;;;5.15;1.63;;;28.90;33.10;;;;;;5001714;28;20112;-70
2023/06/15 11:49:24;;;;;;;5.45;2.25;;;29.20;33.00;;;;;;5005906;28;20074;-69
2023/06/15 11:51:52;;;;;;;7.60;2.30;;;29.50;31.00;;;;;;5011388;28;20029;-68
2023/06/15 11:54:24;;;;;;;5.55;2.35;;;28.40;32.50;;;;;;5004011;28;20033;-68
2023/06/15 11:56:49;;;;;;;5.20;2.40;;;28.40;33.60;;;;;;5007611;28;20112;-67
2023/06/15 11:59:17;;;;;;;10.30;2.35;;;28.20;34.20;;;;;;5019233;28;20136;-69
2023/06/15 12:01:43;;;;;;;9.80;2.60;;;28.00;35.60;;;;;;5001213;28;20124;-68
2023/06/15 12:04:12;;;;;;;7.18;2.30;;;27.90;34.90;;;;;;5009032;28;20103;-68
2023/06/15 12:06:38;;;;;;;9.67;2.43;;;27.20;34.30;;;;;;5010086;28;20056;-69
2023/06/15 12:09:04;;;;;;;5.80;2.17;;;27.00;33.60;;;;;;4999630;28;20183;-68
2023/06/15 12:11:30;;;;;;;3.25;2.08;;;27.00;34.50;;;;;;5009222;28;20378;-68
2023/06/15 12:14:16;;;;;;;8.55;2.40;;;27.20;35.50;;;;;;5009381;28;20053;-69
2023/06/15 12:16:52;;;;;;;4.97;2.50;;;27.10;32.50;;;;;;5008420;28;20370;-68
2023/06/15 12:19:20;;;;;;;7.38;2.20;;;27.00;34.20;;;;;;5008568;28;20076;-72
2023/06/15 12:21:46;;;;;;;10.88;2.20;;;26.80;33.30;;;;;;4997811;28;20407;-69
2023/06/15 12:24:16;;;;;;;11.25;2.70;;;26.60;34.10;;;;;;5015836;28;20029;-67
2023/06/15 12:26:51;;;;;;;11.10;2.40;;;26.60;34.80;;;;;;5013660;28;20347;-68
2023/06/15 12:29:19;;;;;;;4.00;2.00;;;26.70;33.60;;;;;;5005877;28;20018;-67
2023/06/15 12:31:54;;;;;;;8.10;2.63;;;26.40;33.40;;;;;;4999125;28;20105;-70
2023/06/15 12:34:23;;;;;;;6.20;2.28;;;26.80;33.00;;;;;;5005579;28;20029;-68
2023/06/15 12:36:50;;;;;;;7.25;2.58;;;27.20;34.60;;;;;;5002117;28;20544;-68
2023/06/15 12:39:15;;;;;;;8.73;2.85;;;27.70;34.10;;;;;;5001952;28;20080;-68
2023/06/15 12:41:42;;;;;;;4.88;2.08;;;27.80;35.20;;;;;;5006238;28;20034;-68
2023/06/15 12:44:08;;;;;;;6.82;2.28;;;27.20;35.30;;;;;;5007406;28;20041;-68
2023/06/15 12:46:38;;;;;;;7.90;2.50;;;28.00;36.10;;;;;;5005803;28;20426;-68